createdAt,value
2022-10-29T00:02:12.080Z,88.99
2022-10-29T00:04:41.834Z,88.79
2022-10-29T00:07:11.594Z,89.00
2022-10-29T00:09:41.307Z,89.08
2022-10-29T00:12:13.812Z,88.63
2022-10-29T00:14:43.518Z,88.48
2022-10-29T00:17:13.287Z,88.86
2022-10-29T00:19:42.994Z,88.55
2022-10-29T00:22:12.719Z,88.33
2022-10-29T00:24:42.443Z,88.73
2022-10-29T00:27:14.763Z,88.19
2022-10-29T00:29:44.649Z,88.42
2022-10-29T00:32:14.592Z,88.91
2022-10-29T00:34:44.367Z,88.72
2022-10-29T00:37:14.180Z,89.20
2022-10-29T00:39:43.888Z,89.12
2022-10-29T00:42:19.954Z,88.47
2022-10-29T00:44:51.333Z,88.79
2022-10-29T00:47:25.088Z,89.11
2022-10-29T00:49:59.877Z,88.40
2022-10-29T00:52:33.423Z,88.84
2022-10-29T00:55:05.786Z,89.41
2022-10-29T00:57:42.435Z,89.05
2022-10-29T01:00:14.683Z,89.17
2022-10-29T01:02:46.492Z,89.02
2022-10-29T01:05:21.476Z,89.33
2022-10-29T01:07:51.270Z,89.60
2022-10-29T01:10:30.523Z,89.84
2022-10-29T01:13:18.049Z,89.67
2022-10-29T01:15:58.030Z,89.77
2022-10-29T01:18:36.698Z,89.77
2022-10-29T01:21:24.027Z,89.80
2022-10-29T01:24:23.625Z,89.73
2022-10-29T01:27:18.205Z,90.39
2022-10-29T01:30:05.257Z,90.57
2022-10-29T01:32:48.376Z,91.06
2022-10-29T01:35:24.841Z,91.57
2022-10-29T01:38:04.777Z,91.96
2022-10-29T01:40:39.240Z,92.51
2022-10-29T01:43:16.075Z,92.17
2022-10-29T01:45:49.905Z,92.32
2022-10-29T01:48:33.021Z,92.08
2022-10-29T01:51:10.033Z,92.33
2022-10-29T01:53:41.164Z,92.28
2022-10-29T01:56:11.028Z,92.73
2022-10-29T01:58:42.871Z,92.62
2022-10-29T02:01:28.399Z,92.55
2022-10-29T02:04:12.305Z,93.08
2022-10-29T02:06:50.737Z,93.02
2022-10-29T02:09:28.978Z,92.71
2022-10-29T02:12:04.328Z,93.22
2022-10-29T02:14:38.128Z,93.10
2022-10-29T02:17:09.731Z,93.09
2022-10-29T02:19:42.176Z,92.95
2022-10-29T02:22:11.921Z,93.16
2022-10-29T02:24:41.608Z,92.74
2022-10-29T02:27:11.308Z,92.64
2022-10-29T02:29:41.747Z,92.45
2022-10-29T02:32:11.580Z,92.18
2022-10-29T02:34:43.877Z,92.37
2022-10-29T02:37:13.623Z,92.26
2022-10-29T02:39:43.336Z,92.24
2022-10-29T02:42:13.448Z,92.55
2022-10-29T02:44:43.180Z,92.13
2022-10-29T02:47:12.906Z,92.41
2022-10-29T02:49:45.209Z,92.45
2022-10-29T02:52:14.982Z,92.59
2022-10-29T02:54:44.763Z,92.54
2022-10-29T02:57:14.479Z,92.19
2022-10-29T02:59:44.206Z,92.40
2022-10-29T03:02:14.103Z,92.79
2022-10-29T03:04:46.914Z,91.92
2022-10-29T03:07:16.635Z,91.99
2022-10-29T03:09:46.338Z,92.22
2022-10-29T03:12:16.136Z,92.93
2022-10-29T03:14:45.853Z,93.10
2022-10-29T03:17:15.550Z,93.01
2022-10-29T03:19:47.886Z,92.15
2022-10-29T03:22:17.717Z,92.61
2022-10-29T03:24:47.532Z,92.92
2022-10-29T03:27:17.253Z,92.73
2022-10-29T03:29:46.933Z,92.98
2022-10-29T03:32:16.664Z,93.14
2022-10-29T03:34:49.041Z,92.79
2022-10-29T03:37:18.757Z,93.47
2022-10-29T03:39:48.493Z,92.96
2022-10-29T03:42:18.222Z,93.33
2022-10-29T03:44:47.895Z,92.88
2022-10-29T03:47:17.670Z,92.95
2022-10-29T03:49:49.966Z,93.20
2022-10-29T03:52:19.924Z,93.04
2022-10-29T03:54:49.766Z,93.07
2022-10-29T03:57:19.516Z,93.05
2022-10-29T03:59:52.409Z,93.28
2022-10-29T04:02:22.691Z,93.11
2022-10-29T04:04:55.154Z,92.51
2022-10-29T04:07:25.046Z,93.46
2022-10-29T04:09:54.835Z,93.65
2022-10-29T04:12:24.566Z,93.79
2022-10-29T04:14:54.269Z,94.14
2022-10-29T04:17:24.038Z,94.43
2022-10-29T04:19:56.426Z,94.25
2022-10-29T04:30:55.914Z,95.97
2022-10-29T04:33:25.693Z,95.80
2022-10-29T04:35:58.291Z,95.31
2022-10-29T04:38:28.098Z,95.14
2022-10-29T04:41:00.926Z,94.73
2022-10-29T04:43:31.795Z,94.76
2022-10-29T04:46:02.787Z,94.60
2022-10-29T04:48:32.628Z,94.67
2022-10-29T04:51:05.011Z,94.49
2022-10-29T04:53:34.883Z,94.81
2022-10-29T04:56:05.740Z,95.00
2022-10-29T04:58:35.528Z,95.17
2022-10-29T05:01:05.857Z,96.34
2022-10-29T05:03:36.598Z,96.28
2022-10-29T05:06:09.845Z,96.55
2022-10-29T05:08:39.605Z,96.79
2022-10-29T05:11:09.932Z,96.46
2022-10-29T05:13:39.678Z,96.22
2022-10-29T05:16:10.806Z,95.79
2022-10-29T05:18:40.664Z,95.39
2022-10-29T05:21:14.078Z,95.34
2022-10-29T05:23:44.894Z,95.20
2022-10-29T05:26:14.710Z,95.14
2022-10-29T05:28:44.508Z,94.81
2022-10-29T05:31:14.292Z,95.01
2022-10-29T05:33:45.171Z,95.21
2022-10-29T05:36:17.590Z,95.18
2022-10-29T05:38:47.459Z,95.93
2022-10-29T05:41:18.252Z,96.18
2022-10-29T05:43:51.522Z,96.13
2022-10-29T05:46:22.275Z,96.40
2022-10-29T05:48:53.013Z,96.68
2022-10-29T05:51:26.660Z,96.93
2022-10-29T05:53:57.530Z,97.23
2022-10-29T05:56:27.382Z,97.09
2022-10-29T05:58:57.205Z,97.24
2022-10-29T06:01:27.064Z,97.44
2022-10-29T06:03:57.024Z,97.88
2022-10-29T06:06:29.603Z,99.47
2022-10-29T06:09:00.488Z,100.00
2022-10-29T06:11:31.344Z,100.00
2022-10-29T06:14:01.285Z,100.00
2022-10-29T06:16:31.178Z,100.00
2022-10-29T06:19:01.049Z,100.00
2022-10-29T06:21:35.671Z,100.00
2022-10-29T06:24:05.760Z,100.00
2022-10-29T06:26:37.417Z,100.00
2022-10-29T06:29:07.285Z,99.98
2022-10-29T06:31:37.175Z,99.63
2022-10-29T06:34:06.980Z,99.06
2022-10-29T06:36:39.482Z,99.02
2022-10-29T06:39:09.393Z,99.02
2022-10-29T06:41:39.189Z,98.71
2022-10-29T06:44:09.131Z,98.61
2022-10-29T06:46:41.660Z,98.17
2022-10-29T06:49:11.517Z,97.74
2022-10-29T06:51:43.964Z,98.09
2022-10-29T06:54:14.039Z,98.43
2022-10-29T06:56:44.836Z,98.31
2022-10-29T06:59:15.666Z,98.11
2022-10-29T07:01:46.766Z,97.85
2022-10-29T07:04:18.459Z,97.61
2022-10-29T07:06:51.969Z,97.62
2022-10-29T07:09:22.814Z,97.56
2022-10-29T07:11:52.658Z,97.56
2022-10-29T07:14:22.539Z,97.75
2022-10-29T07:16:52.441Z,98.00
2022-10-29T07:19:23.316Z,97.60
2022-10-29T07:21:55.781Z,97.53
2022-10-29T07:24:26.654Z,97.30
2022-10-29T07:26:57.451Z,97.28
2022-10-29T07:29:29.276Z,97.24
2022-10-29T07:31:59.118Z,97.59
2022-10-29T07:34:28.998Z,97.05
2022-10-29T07:37:03.544Z,96.94
2022-10-29T07:39:35.415Z,96.50
2022-10-29T07:42:05.649Z,97.15
2022-10-29T07:44:35.424Z,97.17
2022-10-29T07:47:06.286Z,96.40
2022-10-29T07:49:36.094Z,96.78
2022-10-29T07:52:09.574Z,96.97
2022-10-29T07:54:40.425Z,97.67
2022-10-29T07:57:13.438Z,98.59
2022-10-29T07:59:44.260Z,98.00
2022-10-29T08:02:15.144Z,98.28
2022-10-29T08:04:46.007Z,98.26
2022-10-29T08:07:19.591Z,97.88
2022-10-29T08:09:49.498Z,97.88
2022-10-29T08:12:20.366Z,97.68
2022-10-29T08:14:50.138Z,97.04
2022-10-29T08:17:20.937Z,97.00
2022-10-29T08:19:50.729Z,97.21
2022-10-29T08:22:23.244Z,96.89
2022-10-29T08:24:54.045Z,96.96
2022-10-29T08:27:23.897Z,96.88
2022-10-29T08:29:54.719Z,96.48
2022-10-29T08:32:24.513Z,95.95
2022-10-29T08:34:56.250Z,95.90
2022-10-29T08:37:29.863Z,95.93
2022-10-29T08:40:04.427Z,96.42
2022-10-29T08:42:46.035Z,96.51
2022-10-29T08:45:26.511Z,97.54
2022-10-29T08:48:23.398Z,96.97
2022-10-29T08:50:59.889Z,98.94
2022-10-29T08:53:39.411Z,98.63
2022-10-29T08:56:18.822Z,98.78
2022-10-29T08:58:58.086Z,98.55
2022-10-29T09:01:28.324Z,98.10
2022-10-29T09:03:59.428Z,97.79
2022-10-29T09:06:52.296Z,97.05
2022-10-29T09:09:33.026Z,96.52
2022-10-29T09:12:18.232Z,95.77
2022-10-29T09:15:17.365Z,95.15
2022-10-29T09:17:54.975Z,94.49
2022-10-29T09:20:33.858Z,94.04
2022-10-29T09:23:15.704Z,93.29
2022-10-29T09:25:56.409Z,92.98
2022-10-29T09:28:38.663Z,92.43
2022-10-29T09:31:21.793Z,92.16
2022-10-29T09:33:59.327Z,92.01
2022-10-29T09:36:34.220Z,92.09
2022-10-29T09:39:15.228Z,91.05
2022-10-29T09:41:49.283Z,91.61
2022-10-29T09:44:24.622Z,91.48
2022-10-29T09:47:09.857Z,86.46
2022-10-29T09:50:05.218Z,88.28
2022-10-29T09:52:42.499Z,88.96
2022-10-29T09:55:22.236Z,88.90
2022-10-29T09:57:55.678Z,89.17
2022-10-29T10:00:27.710Z,89.29
2022-10-29T10:03:04.713Z,88.90
2022-10-29T10:05:37.041Z,89.13
2022-10-29T10:08:12.281Z,88.86
2022-10-29T10:10:55.988Z,88.19
2022-10-29T10:13:31.654Z,87.14
2022-10-29T10:16:04.490Z,87.88
2022-10-29T10:21:17.086Z,87.33
2022-10-29T10:23:48.902Z,87.50
2022-10-29T10:26:36.561Z,87.83
2022-10-29T10:29:14.601Z,87.91
2022-10-29T10:31:46.178Z,87.40
2022-10-29T10:34:21.541Z,85.98
2022-10-29T10:36:55.451Z,86.26
2022-10-29T10:39:30.339Z,86.51
2022-10-29T10:42:03.009Z,85.28
2022-10-29T10:44:37.874Z,85.30
2022-10-29T10:47:10.043Z,85.81
2022-10-29T10:49:41.853Z,85.21
2022-10-29T10:52:19.484Z,85.09
2022-10-29T10:54:56.922Z,84.79
2022-10-29T10:57:30.455Z,83.58
2022-10-29T11:00:07.961Z,82.68
2022-10-29T11:02:47.874Z,83.26
2022-10-29T11:05:21.304Z,83.14
2022-10-29T11:08:01.358Z,82.64
2022-10-29T11:10:39.864Z,83.24
2022-10-29T11:13:18.236Z,82.80
2022-10-29T11:15:57.081Z,82.13
2022-10-29T11:18:34.304Z,82.32
2022-10-29T11:21:12.570Z,82.11
2022-10-29T11:23:50.400Z,82.46
2022-10-29T11:26:24.946Z,81.66
2022-10-29T11:29:02.513Z,81.73
2022-10-29T11:31:43.426Z,81.90
2022-10-29T11:34:19.831Z,81.25
2022-10-29T11:36:57.893Z,80.18
2022-10-29T11:39:33.658Z,79.57
2022-10-29T11:42:05.576Z,78.60
2022-10-29T11:44:42.025Z,78.68
2022-10-29T11:47:29.874Z,77.74
2022-10-29T11:50:17.881Z,77.68
2022-10-29T11:52:54.171Z,78.39
2022-10-29T11:55:33.291Z,77.40
2022-10-29T11:58:06.028Z,78.09
2022-10-29T12:00:51.257Z,77.98
2022-10-29T12:03:48.121Z,78.26
2022-10-29T12:06:24.678Z,77.99
2022-10-29T12:09:06.085Z,77.22
2022-10-29T12:11:44.106Z,77.73
2022-10-29T12:14:29.883Z,77.73
2022-10-29T12:17:12.291Z,76.14
2022-10-29T12:19:52.006Z,76.47
2022-10-29T12:22:31.273Z,76.23
2022-10-29T12:25:17.916Z,76.60
2022-10-29T12:27:55.959Z,76.57
2022-10-29T12:30:27.281Z,77.04
2022-10-29T12:33:02.133Z,77.06
2022-10-29T12:35:45.070Z,77.57
2022-10-29T12:38:31.278Z,77.02
2022-10-29T12:41:06.568Z,78.05
2022-10-29T12:43:38.874Z,78.52
2022-10-29T12:46:20.098Z,77.82
2022-10-29T12:49:01.025Z,77.66
2022-10-29T12:51:44.148Z,77.39
2022-10-29T12:54:24.381Z,77.40
2022-10-29T12:56:56.740Z,78.34
2022-10-29T12:59:36.906Z,77.80
2022-10-29T13:02:27.229Z,78.21
2022-10-29T13:05:16.760Z,78.22
2022-10-29T13:08:21.794Z,78.34
2022-10-29T13:10:56.947Z,79.58
2022-10-29T13:13:52.745Z,78.80
2022-10-29T13:16:28.042Z,79.33
2022-10-29T13:19:17.381Z,78.27
2022-10-29T13:22:05.611Z,78.33
2022-10-29T13:24:39.221Z,78.44
2022-10-29T13:27:36.333Z,78.96
2022-10-29T13:30:23.893Z,78.09
2022-10-29T13:32:55.521Z,77.90
2022-10-29T13:35:43.496Z,76.45
2022-10-29T13:38:21.333Z,76.11
2022-10-29T13:41:19.082Z,75.20
2022-10-29T13:43:57.278Z,76.22
2022-10-29T13:46:55.552Z,75.61
2022-10-29T13:49:29.704Z,75.81
2022-10-29T13:52:04.031Z,76.16
2022-10-29T13:54:42.055Z,77.12
2022-10-29T13:57:25.361Z,76.32
2022-10-29T14:00:01.077Z,76.74
2022-10-29T14:02:50.584Z,76.39
2022-10-29T14:05:28.208Z,76.90
2022-10-29T14:08:04.007Z,76.43
2022-10-29T14:10:38.892Z,77.64
2022-10-29T14:13:31.696Z,77.31
2022-10-29T14:16:04.853Z,76.99
2022-10-29T14:18:36.178Z,77.43
2022-10-29T14:21:09.590Z,76.97
2022-10-29T14:23:41.001Z,76.91
2022-10-29T14:28:51.976Z,77.37
2022-10-29T14:31:25.011Z,77.16
2022-10-29T14:33:57.882Z,77.76
2022-10-29T14:36:33.950Z,77.88
2022-10-29T14:39:08.557Z,77.68
2022-10-29T14:41:41.810Z,77.29
2022-10-29T14:44:21.654Z,77.92
2022-10-29T14:46:59.100Z,78.06
2022-10-29T14:49:30.790Z,78.58
2022-10-29T14:52:04.269Z,78.58
2022-10-29T14:54:38.570Z,78.04
2022-10-29T14:57:17.140Z,78.20
2022-10-29T14:59:57.181Z,78.14
2022-10-29T15:02:38.332Z,78.25
2022-10-29T15:05:27.197Z,77.78
2022-10-29T15:08:19.133Z,78.18
2022-10-29T15:10:51.368Z,78.36
2022-10-29T15:13:26.588Z,77.66
2022-10-29T15:16:03.209Z,77.74
2022-10-29T15:18:35.807Z,77.93
2022-10-29T15:21:08.106Z,77.75
2022-10-29T15:23:46.266Z,78.00
2022-10-29T15:26:21.653Z,78.13
2022-10-29T15:28:55.916Z,78.47
2022-10-29T15:31:36.073Z,78.62
2022-10-29T15:34:12.144Z,78.57
2022-10-29T15:36:51.956Z,78.69
2022-10-29T15:39:26.951Z,79.42
2022-10-29T15:41:59.294Z,79.97
2022-10-29T15:45:05.177Z,78.92
2022-10-29T15:47:40.249Z,79.96
2022-10-29T15:50:14.048Z,79.99
2022-10-29T15:52:47.278Z,80.27
2022-10-29T15:55:26.850Z,80.92
2022-10-29T15:58:07.047Z,79.43
2022-10-29T16:00:36.820Z,80.07
2022-10-29T16:03:17.289Z,80.18
2022-10-29T16:05:49.744Z,80.41
2022-10-29T16:08:27.439Z,80.96
2022-10-29T16:10:59.513Z,81.13
2022-10-29T16:13:33.033Z,81.14
2022-10-29T16:16:04.158Z,81.79
2022-10-29T16:18:37.567Z,82.46
2022-10-29T16:21:09.360Z,82.38
2022-10-29T16:23:41.210Z,82.17
2022-10-29T16:26:12.077Z,82.16
2022-10-29T16:28:41.909Z,82.13
2022-10-29T16:31:21.271Z,81.80
2022-10-29T16:33:55.556Z,82.53
2022-10-29T16:36:25.399Z,82.68
2022-10-29T16:38:56.236Z,82.14
2022-10-29T16:41:27.105Z,82.37
2022-10-29T16:43:56.940Z,82.95
2022-10-29T16:46:26.681Z,82.81
2022-10-29T16:48:59.248Z,82.72
2022-10-29T16:51:29.186Z,82.96
2022-10-29T16:53:59.036Z,83.27
2022-10-29T16:56:29.864Z,82.79
2022-10-29T16:59:02.007Z,83.06
2022-10-29T17:01:32.048Z,83.43
2022-10-29T17:04:04.556Z,83.65
2022-10-29T17:06:37.168Z,83.82
2022-10-29T17:09:08.516Z,83.98
2022-10-29T17:11:38.402Z,84.39
2022-10-29T17:14:09.319Z,84.05
2022-10-29T17:16:39.221Z,84.00
2022-10-29T17:19:11.670Z,83.97
2022-10-29T17:21:41.464Z,84.40
2022-10-29T17:24:11.510Z,84.26
2022-10-29T17:26:41.389Z,84.86
2022-10-29T17:29:11.399Z,84.87
2022-10-29T17:31:41.240Z,85.17
2022-10-29T17:34:14.843Z,84.86
2022-10-29T17:36:44.640Z,80.04
2022-10-29T17:39:14.545Z,82.15
2022-10-29T17:41:45.409Z,84.03
2022-10-29T17:44:15.512Z,84.38
2022-10-29T17:46:46.474Z,84.63
2022-10-29T17:49:18.858Z,85.16
2022-10-29T17:51:48.676Z,85.01
2022-10-29T17:54:21.367Z,85.18
2022-10-29T17:56:52.251Z,85.11
2022-10-29T17:59:22.120Z,85.32
2022-10-29T18:01:53.065Z,85.19
2022-10-29T18:04:25.514Z,85.21
2022-10-29T18:06:56.910Z,85.36
2022-10-29T18:09:26.841Z,85.44
2022-10-29T18:11:56.641Z,85.62
2022-10-29T18:14:26.576Z,85.56
2022-10-29T18:16:58.390Z,85.33
2022-10-29T18:19:31.048Z,85.49
2022-10-29T18:22:00.806Z,85.89
2022-10-29T18:24:32.709Z,85.91
2022-10-29T18:27:03.524Z,85.66
2022-10-29T18:29:33.320Z,85.77
2022-10-29T18:32:04.180Z,86.06
2022-10-29T18:34:36.798Z,85.31
2022-10-29T18:37:06.673Z,85.54
2022-10-29T18:39:36.561Z,85.29
2022-10-29T18:42:08.533Z,85.58
2022-10-29T18:44:39.672Z,85.41
2022-10-29T18:47:09.520Z,85.72
2022-10-29T18:49:41.928Z,85.58
2022-10-29T18:52:11.714Z,85.80
2022-10-29T18:54:41.552Z,85.65
2022-10-29T18:57:15.337Z,85.81
2022-10-29T18:59:49.093Z,85.69
2022-10-29T19:02:18.906Z,85.69
2022-10-29T19:04:51.470Z,85.78
2022-10-29T19:07:21.654Z,86.22
2022-10-29T19:09:51.563Z,86.29
2022-10-29T19:12:21.496Z,86.30
2022-10-29T19:14:51.320Z,85.99
2022-10-29T19:17:22.118Z,86.41
2022-10-29T19:19:55.655Z,86.62
2022-10-29T19:22:26.507Z,86.19
2022-10-29T19:24:57.326Z,86.77
2022-10-29T19:27:27.109Z,87.04
2022-10-29T19:29:58.086Z,86.89
2022-10-29T19:32:28.966Z,86.81
2022-10-29T19:35:02.464Z,86.67
2022-10-29T19:37:33.307Z,86.78
2022-10-29T19:40:05.360Z,86.86
2022-10-29T19:42:36.342Z,86.51
2022-10-29T19:45:06.576Z,86.34
2022-10-29T19:47:37.555Z,86.43
2022-10-29T19:50:12.928Z,86.14
2022-10-29T19:52:43.911Z,86.64
2022-10-29T19:55:14.596Z,86.82
2022-10-29T19:57:44.658Z,87.12
2022-10-29T20:00:17.765Z,86.56
2022-10-29T20:02:48.902Z,87.08
2022-10-29T20:05:21.639Z,87.95
2022-10-29T20:07:51.480Z,88.12
2022-10-29T20:10:23.560Z,88.90
2022-10-29T20:12:54.579Z,88.46
2022-10-29T20:15:24.501Z,88.86
2022-10-29T20:17:57.329Z,89.17
2022-10-29T20:20:31.031Z,88.84
2022-10-29T20:23:02.219Z,88.97
2022-10-29T20:25:32.439Z,88.96
2022-10-29T20:28:04.424Z,88.95
2022-10-29T20:30:35.263Z,89.03
2022-10-29T20:33:06.289Z,88.90
2022-10-29T20:35:38.681Z,89.10
2022-10-29T20:38:08.708Z,89.23
2022-10-29T20:40:39.543Z,89.22
2022-10-29T20:43:09.438Z,89.50
2022-10-29T20:45:39.284Z,89.67
2022-10-29T20:48:10.103Z,89.15
2022-10-29T20:50:43.623Z,89.30
2022-10-29T20:53:13.400Z,89.18
2022-10-29T20:55:44.228Z,88.97
2022-10-29T20:58:14.051Z,89.22
2022-10-29T21:00:44.286Z,89.42
2022-10-29T21:03:14.909Z,89.43
2022-10-29T21:05:47.326Z,89.25
2022-10-29T21:08:18.201Z,89.48
2022-10-29T21:10:51.619Z,89.50
2022-10-29T21:13:21.431Z,89.74
2022-10-29T21:15:54.620Z,89.72
2022-10-29T21:18:24.768Z,89.93
2022-10-29T21:20:58.165Z,89.80
2022-10-29T21:23:27.953Z,90.14
2022-10-29T21:25:58.821Z,90.04
2022-10-29T21:28:29.646Z,90.59
2022-10-29T21:31:01.542Z,90.60
2022-10-29T21:33:33.436Z,90.62
2022-10-29T21:36:06.430Z,90.68
2022-10-29T21:38:37.307Z,91.73
2022-10-29T21:41:07.178Z,91.33
2022-10-29T21:43:38.041Z,92.01
2022-10-29T21:46:09.524Z,91.97
2022-10-29T21:48:40.362Z,92.29
2022-10-29T21:51:15.171Z,91.92
2022-10-29T21:53:46.124Z,91.09
2022-10-29T21:56:17.921Z,92.14
2022-10-29T21:58:48.809Z,91.23
2022-10-29T22:01:19.486Z,93.04
2022-10-29T22:03:50.965Z,92.46
2022-10-29T22:06:25.759Z,94.16
2022-10-29T22:08:57.251Z,94.82
2022-10-29T22:11:27.786Z,94.99
2022-10-29T22:13:58.030Z,94.55
2022-10-29T22:16:31.659Z,94.47
2022-10-29T22:19:03.045Z,94.84
2022-10-29T22:21:35.464Z,94.27
2022-10-29T22:24:06.177Z,93.88
2022-10-29T22:26:36.496Z,93.55
2022-10-29T22:29:07.391Z,93.42
2022-10-29T22:31:38.140Z,92.90
2022-10-29T22:34:09.123Z,92.78
2022-10-29T22:36:41.499Z,91.98
2022-10-29T22:39:12.652Z,91.73
2022-10-29T22:41:44.486Z,84.62
2022-10-29T22:44:15.256Z,86.20
2022-10-29T22:46:46.198Z,87.60
2022-10-29T22:49:16.994Z,87.42
2022-10-29T22:51:49.338Z,87.16
2022-10-29T22:54:19.334Z,86.28
2022-10-29T22:56:49.174Z,85.95
2022-10-29T22:59:21.024Z,85.21
2022-10-29T23:01:50.911Z,84.59
2022-10-29T23:04:20.775Z,83.40
2022-10-29T23:06:57.892Z,83.12
2022-10-29T23:09:32.684Z,82.85
2022-10-29T23:12:03.524Z,82.60
2022-10-29T23:14:35.317Z,82.42
2022-10-29T23:17:05.089Z,82.49
2022-10-29T23:19:35.944Z,81.88
2022-10-29T23:22:09.367Z,81.43
2022-10-29T23:24:39.153Z,81.40
2022-10-29T23:27:08.949Z,81.41
2022-10-29T23:29:38.799Z,81.84
2022-10-29T23:32:10.621Z,81.81
2022-10-29T23:34:40.404Z,81.43
2022-10-29T23:37:12.877Z,81.17
2022-10-29T23:39:44.706Z,81.46
2022-10-29T23:42:14.493Z,82.17
2022-10-29T23:44:45.369Z,81.85
2022-10-29T23:47:16.271Z,81.40
2022-10-29T23:49:46.085Z,81.16
2022-10-29T23:52:19.526Z,80.64
2022-10-29T23:54:49.282Z,80.41
2022-10-29T23:57:20.137Z,80.16
2022-10-29T23:59:50.987Z,79.33
